Time;durP1;ratioP1;P1;durP2;ratioP2;P2;SDS_P1;SDS_P2;PMS_P1;PMS_P2;Temp;Humidity;BMP_temperature;BMP_pressure;BME280_temperature;BME280_humidity;BME280_pressure;Samples;Min_cycle;Max_cycle;Signal;HPM_P1;HPM_P2
2022/08/16 11:37:18;;;;;;;3.83;3.72;;;36.70;53.20;;;;;;5064976;28;20584;-77
2022/08/16 11:39:44;;;;;;;4.43;4.07;;;36.50;57.10;;;;;;5077114;28;20810;-76
2022/08/16 11:42:09;;;;;;;3.67;3.53;;;36.30;55.60;;;;;;5055565;28;20341;-76
2022/08/16 11:44:35;;;;;;;3.13;3.13;;;35.90;57.60;;;;;;5059894;28;20178;-76
2022/08/16 11:47:01;;;;;;;4.30;4.03;;;35.40;57.30;;;;;;5063047;28;20262;-76
2022/08/16 11:49:26;;;;;;;3.38;3.28;;;35.10;57.70;;;;;;5061441;28;20243;-75
2022/08/16 11:51:52;;;;;;;4.88;4.05;;;34.80;61.00;;;;;;5069036;28;20182;-75
2022/08/16 11:54:18;;;;;;;4.63;3.25;;;34.40;61.40;;;;;;5069541;28;20193;-75
2022/08/16 11:56:44;;;;;;;3.40;3.20;;;33.90;62.10;;;;;;5066067;28;20205;-75
2022/08/16 11:59:09;;;;;;;20.15;3.72;;;33.50;62.40;;;;;;5068396;28;20206;-74
2022/08/16 12:01:35;;;;;;;3.25;2.95;;;32.90;63.40;;;;;;5062708;28;20742;-74
2022/08/16 12:04:01;;;;;;;2.70;2.60;;;32.60;63.90;;;;;;5067518;28;20174;-76
2022/08/16 12:06:27;;;;;;;1.67;1.67;;;32.30;64.20;;;;;;5060228;28;20265;-74
2022/08/16 12:08:56;;;;;;;2.00;2.00;;;31.80;62.40;;;;;;5066647;28;20331;-74
2022/08/16 12:11:22;;;;;;;2.53;2.40;;;31.60;64.60;;;;;;5067378;28;20189;-73
2022/08/16 12:13:50;;;;;;;2.97;2.67;;;31.60;65.00;;;;;;5062128;28;20178;-75
2022/08/16 12:16:18;;;;;;;2.22;2.20;;;31.80;64.70;;;;;;5064506;28;20619;-74
2022/08/16 12:18:44;;;;;;;2.72;2.33;;;32.30;64.60;;;;;;5067644;28;20189;-75
2022/08/16 12:21:09;;;;;;;2.30;2.13;;;32.90;63.90;;;;;;5071753;28;20269;-74
2022/08/16 12:23:36;;;;;;;2.75;2.75;;;33.50;63.20;;;;;;5068958;28;20329;-75
2022/08/16 12:26:02;;;;;;;2.78;2.67;;;34.10;60.60;;;;;;5065867;28;20198;-75
2022/08/16 12:28:27;;;;;;;2.38;2.28;;;34.40;60.50;;;;;;5068621;28;20595;-74
2022/08/16 12:30:53;;;;;;;2.92;2.70;;;34.50;61.00;;;;;;5062087;28;20183;-76
2022/08/16 12:33:19;;;;;;;3.28;3.08;;;34.40;61.20;;;;;;5069661;28;20219;-74
2022/08/16 12:35:47;;;;;;;2.67;2.47;;;34.30;61.10;;;;;;5063963;28;20219;-75
2022/08/16 12:38:14;;;;;;;2.72;2.63;;;34.00;61.90;;;;;;5063149;28;20256;-75
2022/08/16 12:40:43;;;;;;;3.25;3.15;;;33.70;62.40;;;;;;5071643;28;20186;-75
2022/08/16 12:43:11;;;;;;;3.35;3.03;;;33.40;62.40;;;;;;5064075;28;20649;-75
2022/08/16 12:45:44;;;;;;;2.78;2.60;;;33.20;63.40;;;;;;5060457;28;20364;-75
2022/08/16 12:50:56;;;;;;;4.13;2.90;;;32.70;62.00;;;;;;5050180;28;20190;-74
2022/08/16 12:53:23;;;;;;;3.03;2.83;;;32.50;62.40;;;;;;5057244;28;20182;-74
2022/08/16 12:55:49;;;;;;;6.40;3.53;;;32.20;62.90;;;;;;5049903;28;20211;-75
2022/08/16 12:58:15;;;;;;;3.38;3.08;;;31.90;64.30;;;;;;5054950;28;20190;-75
2022/08/16 13:00:42;;;;;;;3.60;3.30;;;32.00;64.10;;;;;;5047795;28;20197;-75
2022/08/16 13:03:08;;;;;;;3.20;3.10;;;31.90;63.70;;;;;;5049301;28;20244;-74
2022/08/16 13:05:40;;;;;;;3.30;3.10;;;31.70;63.90;;;;;;5050776;28;20580;-75
2022/08/16 13:08:13;;;;;;;3.28;2.97;;;31.70;64.80;;;;;;5050037;28;20191;-75
2022/08/16 13:10:43;;;;;;;3.38;3.28;;;32.00;64.60;;;;;;5049062;28;20274;-75
2022/08/16 13:13:08;;;;;;;2.72;2.63;;;32.30;64.30;;;;;;5052759;28;20258;-74
2022/08/16 13:15:35;;;;;;;3.60;3.40;;;32.60;63.70;;;;;;5052926;28;20294;-75
2022/08/16 13:18:01;;;;;;;3.05;3.00;;;33.10;63.30;;;;;;5057991;28;20209;-75
2022/08/16 13:20:30;;;;;;;2.85;2.65;;;33.80;63.10;;;;;;5056694;28;20210;-75
2022/08/16 13:23:03;;;;;;;3.10;2.90;;;34.60;61.30;;;;;;5051502;28;20175;-75
2022/08/16 13:25:31;;;;;;;3.22;3.13;;;35.40;60.10;;;;;;5050051;28;20191;-76
2022/08/16 13:27:57;;;;;;;3.17;3.08;;;36.40;58.60;;;;;;5047962;28;20210;-75
2022/08/16 13:30:25;;;;;;;2.75;2.65;;;37.30;56.30;;;;;;5047593;28;20665;-76
2022/08/16 13:32:52;;;;;;;2.20;2.20;;;38.10;55.10;;;;;;5052698;28;20276;-75
2022/08/16 13:35:18;;;;;;;2.67;2.10;;;38.80;50.90;;;;;;5049018;28;20740;-76
2022/08/16 13:37:44;;;;;;;2.72;2.47;;;39.40;49.20;;;;;;5048544;28;20430;-75
2022/08/16 13:40:10;;;;;;;1.95;1.92;;;39.80;47.50;;;;;;5045491;28;20653;-75
2022/08/16 13:42:39;;;;;;;2.08;1.95;;;40.20;45.10;;;;;;5052566;28;20189;-76
2022/08/16 13:45:06;;;;;;;2.80;2.08;;;40.40;44.30;;;;;;5050350;28;20277;-76
2022/08/16 13:47:33;;;;;;;2.17;1.85;;;40.50;46.30;;;;;;5055106;28;20178;-75
2022/08/16 13:49:59;;;;;;;2.63;1.85;;;40.50;42.70;;;;;;5053747;28;20260;-75
2022/08/16 13:52:24;;;;;;;2.10;1.75;;;40.40;44.00;;;;;;5054018;28;20186;-75
2022/08/16 13:54:50;;;;;;;2.10;1.77;;;40.20;43.60;;;;;;5052276;28;20664;-76
2022/08/16 13:57:16;;;;;;;2.08;1.88;;;40.10;45.40;;;;;;5051008;28;20233;-76
2022/08/16 13:59:42;;;;;;;3.72;1.83;;;40.10;44.40;;;;;;5046550;28;21293;-75
2022/08/16 14:02:08;;;;;;;1.75;1.65;;;40.10;44.80;;;;;;5050231;28;20560;-74
2022/08/16 14:04:37;;;;;;;2.22;2.13;;;39.90;42.10;;;;;;5047583;28;21581;-76
2022/08/16 14:07:05;;;;;;;1.65;1.55;;;39.50;43.60;;;;;;5048471;28;20278;-74
2022/08/16 14:09:33;;;;;;;2.28;1.95;;;38.90;43.80;;;;;;5048069;28;20186;-75
2022/08/16 14:12:00;;;;;;;2.42;2.28;;;38.70;43.90;;;;;;5044852;28;20183;-76
2022/08/16 14:14:28;;;;;;;1.98;1.88;;;38.40;45.40;;;;;;5051520;28;20180;-76
2022/08/16 14:16:53;;;;;;;2.10;2.10;;;38.30;44.10;;;;;;5047145;28;20322;-76
2022/08/16 14:19:19;;;;;;;2.70;2.05;;;38.10;45.40;;;;;;5036889;28;20267;-75
2022/08/16 14:21:46;;;;;;;2.50;2.33;;;37.80;45.80;;;;;;5044448;28;20579;-76
2022/08/16 14:24:15;;;;;;;4.28;2.22;;;37.50;45.80;;;;;;5049143;28;20674;-76
2022/08/16 14:26:42;;;;;;;2.05;2.00;;;37.20;46.20;;;;;;5041307;28;20205;-76
2022/08/16 14:29:08;;;;;;;2.92;2.08;;;36.90;46.50;;;;;;5041670;28;20183;-75
2022/08/16 14:31:34;;;;;;;2.13;2.03;;;36.60;47.20;;;;;;5050813;28;20186;-76
2022/08/16 14:34:03;;;;;;;1.95;1.95;;;36.30;46.80;;;;;;5050805;28;20183;-75
2022/08/16 14:36:29;;;;;;;2.28;2.13;;;35.90;46.30;;;;;;5047032;28;20262;-75
2022/08/16 14:38:55;;;;;;;2.53;2.33;;;35.50;47.50;;;;;;5047598;28;20171;-75
2022/08/16 14:41:20;;;;;;;2.40;2.30;;;35.00;47.30;;;;;;5052615;28;20182;-75
2022/08/16 14:43:46;;;;;;;2.53;2.35;;;34.60;47.60;;;;;;5051560;28;20672;-74
2022/08/16 14:46:12;;;;;;;2.22;2.13;;;34.30;49.40;;;;;;5041796;28;20215;-75
2022/08/16 14:48:37;;;;;;;2.42;2.28;;;33.90;50.10;;;;;;5046374;28;20191;-75
2022/08/16 14:51:03;;;;;;;2.55;2.45;;;33.80;51.50;;;;;;5046115;28;20834;-75
2022/08/16 14:53:29;;;;;;;2.22;2.08;;;33.70;52.10;;;;;;5054863;28;20703;-74
2022/08/16 14:55:55;;;;;;;2.10;2.08;;;33.80;50.40;;;;;;5049837;28;20203;-74
2022/08/16 14:58:23;;;;;;;2.47;2.47;;;33.90;51.50;;;;;;5045718;28;20194;-74
2022/08/16 15:00:49;;;;;;;2.33;2.33;;;34.20;50.50;;;;;;5048813;28;20194;-74
2022/08/16 15:03:15;;;;;;;2.40;2.22;;;34.40;50.30;;;;;;5047255;28;20187;-75
2022/08/16 15:05:41;;;;;;;2.67;2.45;;;34.60;50.90;;;;;;5045678;28;20276;-75
2022/08/16 15:08:08;;;;;;;2.00;1.90;;;34.90;51.10;;;;;;5047196;28;20248;-75
2022/08/16 15:10:35;;;;;;;2.13;1.90;;;35.00;50.40;;;;;;5050911;28;20535;-75
2022/08/16 15:13:04;;;;;;;2.38;2.13;;;35.20;48.90;;;;;;5049542;28;20183;-76
2022/08/16 15:15:32;;;;;;;2.28;2.17;;;35.30;49.40;;;;;;5046189;28;20202;-75
2022/08/16 15:17:59;;;;;;;2.22;2.10;;;35.20;47.10;;;;;;5045595;28;20190;-76
2022/08/16 15:20:27;;;;;;;2.60;2.50;;;35.10;46.80;;;;;;5052336;28;20206;-76
2022/08/16 15:22:53;;;;;;;2.33;2.22;;;34.80;49.10;;;;;;5043179;28;20243;-75
2022/08/16 15:25:23;;;;;;;2.03;1.92;;;34.60;49.10;;;;;;5049323;28;20179;-76
2022/08/16 15:27:49;;;;;;;1.80;1.80;;;34.60;48.90;;;;;;5049464;28;20279;-76
2022/08/16 15:30:21;;;;;;;2.28;2.28;;;34.60;50.10;;;;;;5043319;28;21085;-75
2022/08/16 15:32:48;;;;;;;2.30;2.20;;;34.70;48.60;;;;;;5050958;28;20190;-76
2022/08/16 15:35:15;;;;;;;4.40;2.45;;;34.70;48.30;;;;;;5047391;28;20205;-75
2022/08/16 15:37:40;;;;;;;2.00;2.00;;;34.70;49.10;;;;;;5052104;28;20204;-76
2022/08/16 15:40:10;;;;;;;2.88;2.50;;;34.60;48.70;;;;;;5061083;28;20182;-76
2022/08/16 15:42:36;;;;;;;2.22;2.17;;;34.30;46.90;;;;;;5059639;28;20183;-76
2022/08/16 15:45:06;;;;;;;1.60;1.60;;;34.00;49.70;;;;;;5063309;28;20174;-76
2022/08/16 15:47:33;;;;;;;2.47;2.05;;;33.60;49.10;;;;;;5060083;28;20189;-76
2022/08/16 15:50:01;;;;;;;3.70;2.35;;;33.40;49.30;;;;;;5058467;28;20209;-77
2022/08/16 15:52:31;;;;;;;2.75;2.35;;;33.10;48.60;;;;;;5053786;28;20185;-77
2022/08/16 15:55:07;;;;;;;2.50;2.40;;;32.80;48.40;;;;;;5060371;28;20250;-77
2022/08/16 15:57:34;;;;;;;2.42;2.38;;;32.60;49.90;;;;;;5048209;28;20221;-74
2022/08/16 16:00:04;;;;;;;3.70;2.50;;;32.50;50.70;;;;;;5064803;28;20183;-76
2022/08/16 16:02:32;;;;;;;2.35;2.25;;;32.40;50.30;;;;;;5049580;28;20209;-76
2022/08/16 16:05:06;;;;;;;2.80;2.70;;;32.20;52.00;;;;;;5048612;28;20189;-75
2022/08/16 16:07:32;;;;;;;2.95;2.85;;;32.00;53.10;;;;;;5045945;28;20179;-76
2022/08/16 16:09:59;;;;;;;2.55;2.22;;;31.80;52.60;;;;;;5040530;28;20183;-76
2022/08/16 16:12:26;;;;;;;2.70;2.60;;;31.70;52.50;;;;;;5051069;28;20183;-76
2022/08/16 16:14:52;;;;;;;3.15;3.00;;;31.30;53.40;;;;;;5046590;28;20580;-76
2022/08/16 16:17:18;;;;;;;4.55;2.53;;;31.10;54.10;;;;;;5045826;28;20210;-76
2022/08/16 16:19:43;;;;;;;2.65;2.55;;;31.00;54.20;;;;;;5047797;28;20183;-76
2022/08/16 16:22:09;;;;;;;2.58;2.47;;;30.70;54.50;;;;;;5052058;28;20187;-75
2022/08/16 16:24:35;;;;;;;2.90;2.80;;;30.50;54.90;;;;;;5059470;28;20171;-76
2022/08/16 16:27:00;;;;;;;2.70;2.60;;;30.40;55.40;;;;;;5056142;28;20191;-75
2022/08/16 16:29:26;;;;;;;3.42;3.08;;;30.20;55.70;;;;;;5052275;28;20183;-75
2022/08/16 16:31:53;;;;;;;2.53;2.42;;;30.10;56.30;;;;;;5058665;28;20637;-75
2022/08/16 16:34:21;;;;;;;3.10;2.90;;;30.00;56.30;;;;;;5056092;28;20610;-75
2022/08/16 16:36:46;;;;;;;3.05;2.83;;;29.90;56.70;;;;;;5052961;28;20209;-75
2022/08/16 16:39:12;;;;;;;2.75;2.65;;;29.60;57.10;;;;;;5053571;28;20182;-75
2022/08/16 16:41:39;;;;;;;3.58;3.38;;;29.60;57.30;;;;;;5051246;28;20226;-75
2022/08/16 16:44:06;;;;;;;2.88;2.67;;;29.40;57.90;;;;;;5047610;28;20641;-75
2022/08/16 16:46:35;;;;;;;3.45;3.10;;;29.40;58.20;;;;;;5058664;28;20183;-75
2022/08/16 16:49:05;;;;;;;5.07;3.40;;;29.40;58.30;;;;;;5055284;28;20278;-76
2022/08/16 16:51:31;;;;;;;3.28;3.17;;;29.30;58.60;;;;;;5051402;28;20172;-75
2022/08/16 16:53:59;;;;;;;4.22;3.05;;;29.20;59.00;;;;;;5045728;28;20261;-75
2022/08/16 16:56:28;;;;;;;2.92;2.72;;;29.00;59.90;;;;;;5052215;28;20225;-75
2022/08/16 16:58:59;;;;;;;3.53;3.05;;;28.80;60.60;;;;;;5052922;28;20183;-75
2022/08/16 17:01:53;;;;;;;3.28;3.00;;;28.70;60.70;;;;;;5049773;28;20195;-76
2022/08/16 17:04:22;;;;;;;3.90;3.38;;;28.70;60.30;;;;;;5052698;28;20196;-75
2022/08/16 17:06:49;;;;;;;3.20;3.00;;;28.70;60.30;;;;;;5055262;28;20267;-76
2022/08/16 17:09:16;;;;;;;3.65;3.50;;;28.70;60.30;;;;;;5054327;28;20191;-76
2022/08/16 17:11:44;;;;;;;7.85;3.50;;;28.70;60.50;;;;;;5048528;28;20282;-76
2022/08/16 17:14:11;;;;;;;3.95;3.65;;;28.60;60.70;;;;;;5054845;28;20524;-76
2022/08/16 17:16:37;;;;;;;3.30;3.20;;;28.60;60.60;;;;;;5051423;28;20206;-76
2022/08/16 17:19:07;;;;;;;4.03;3.72;;;28.50;60.50;;;;;;5056386;28;20967;-76
2022/08/16 17:21:38;;;;;;;3.25;3.22;;;28.50;60.70;;;;;;5054635;28;20179;-76
2022/08/16 17:24:05;;;;;;;3.88;3.58;;;28.40;60.90;;;;;;5058027;28;20961;-76
2022/08/16 17:26:31;;;;;;;3.88;3.30;;;28.40;60.90;;;;;;5047017;28;20182;-76
2022/08/16 17:29:01;;;;;;;4.05;3.33;;;28.30;61.10;;;;;;5053985;28;20191;-76
2022/08/16 17:31:27;;;;;;;3.40;3.13;;;28.30;61.10;;;;;;5052262;28;20846;-76
2022/08/16 17:33:52;;;;;;;3.33;3.13;;;28.30;61.20;;;;;;5052930;28;20353;-76
2022/08/16 17:36:18;;;;;;;4.90;3.50;;;28.20;61.20;;;;;;5052637;28;20576;-77
2022/08/16 17:38:44;;;;;;;4.05;3.20;;;28.10;61.30;;;;;;5051557;28;20265;-76
2022/08/16 17:41:10;;;;;;;3.22;2.92;;;28.10;61.50;;;;;;5053758;28;20186;-77
2022/08/16 17:43:39;;;;;;;3.50;3.30;;;28.00;61.40;;;;;;5051282;28;20266;-77
2022/08/16 17:46:06;;;;;;;5.63;3.10;;;27.90;61.60;;;;;;5051018;28;20724;-76
2022/08/16 17:48:34;;;;;;;3.15;3.05;;;27.80;61.80;;;;;;5051728;28;20191;-75
2022/08/16 17:51:01;;;;;;;3.50;3.30;;;27.70;61.80;;;;;;5051841;28;20183;-76
2022/08/16 17:53:27;;;;;;;3.28;3.15;;;27.60;62.20;;;;;;5054702;28;20179;-74
2022/08/16 17:55:54;;;;;;;3.45;3.10;;;27.50;62.30;;;;;;5056252;28;20692;-75
2022/08/16 17:58:20;;;;;;;4.07;3.80;;;27.50;62.20;;;;;;5058371;28;20184;-74
2022/08/16 18:00:46;;;;;;;4.50;3.47;;;27.40;62.30;;;;;;5050995;28;20188;-74
2022/08/16 18:03:23;;;;;;;3.53;3.42;;;27.40;62.40;;;;;;5052517;28;20183;-76
2022/08/16 18:05:50;;;;;;;3.40;3.03;;;27.40;62.60;;;;;;5042877;28;20669;-74
2022/08/16 18:08:15;;;;;;;3.33;3.13;;;27.30;62.70;;;;;;5057500;28;20187;-76
2022/08/16 18:10:42;;;;;;;9.32;3.40;;;27.20;63.10;;;;;;5054871;28;20973;-76
2022/08/16 18:13:09;;;;;;;3.28;3.17;;;27.20;62.80;;;;;;5055485;28;20203;-76
2022/08/16 18:15:37;;;;;;;3.42;3.22;;;27.20;62.90;;;;;;5048532;28;20321;-75
2022/08/16 18:18:03;;;;;;;6.68;3.22;;;27.10;63.00;;;;;;5052257;28;20799;-75
2022/08/16 18:23:23;;;;;;;3.17;3.08;;;27.00;63.00;;;;;;5038906;28;20190;-75
2022/08/16 18:25:55;;;;;;;3.75;3.55;;;27.00;63.30;;;;;;5049660;28;20191;-74
2022/08/16 18:28:21;;;;;;;3.55;3.35;;;26.90;63.40;;;;;;5048316;28;20210;-73
2022/08/16 18:30:48;;;;;;;3.50;3.25;;;26.90;63.90;;;;;;5045408;28;20226;-74
2022/08/16 18:33:15;;;;;;;4.72;3.72;;;26.80;63.90;;;;;;5052536;28;20207;-73
2022/08/16 18:35:41;;;;;;;3.45;3.35;;;26.80;63.90;;;;;;5043428;28;20222;-73
2022/08/16 18:38:07;;;;;;;3.50;3.10;;;26.70;64.00;;;;;;5047832;28;20914;-74
2022/08/16 18:40:33;;;;;;;3.08;2.97;;;26.70;64.30;;;;;;5039797;28;20191;-73
2022/08/16 18:43:04;;;;;;;3.60;3.30;;;26.60;64.80;;;;;;5049152;28;20250;-74
2022/08/16 18:45:33;;;;;;;6.22;3.53;;;26.60;64.50;;;;;;5051222;28;20180;-74
2022/08/16 18:47:59;;;;;;;3.75;3.00;;;26.40;64.70;;;;;;5043700;28;20669;-73
2022/08/16 18:50:25;;;;;;;3.38;3.28;;;26.40;65.10;;;;;;5049684;28;20188;-73
2022/08/16 18:52:56;;;;;;;4.07;3.67;;;26.30;65.10;;;;;;5047288;28;20184;-74
2022/08/16 18:55:26;;;;;;;3.10;2.97;;;26.30;65.00;;;;;;5050559;28;20259;-74
2022/08/16 18:57:54;;;;;;;3.17;3.08;;;26.30;64.90;;;;;;5038648;28;20196;-75
2022/08/16 19:00:24;;;;;;;3.13;2.97;;;26.20;64.90;;;;;;5049713;28;20190;-75
2022/08/16 19:02:50;;;;;;;3.05;2.95;;;26.20;64.90;;;;;;5050958;28;20233;-74
2022/08/16 19:05:23;;;;;;;3.17;3.05;;;26.00;66.10;;;;;;5051591;28;20184;-73
2022/08/16 19:07:49;;;;;;;3.33;3.22;;;26.00;66.40;;;;;;5049865;28;20188;-73
2022/08/16 19:10:15;;;;;;;2.90;2.70;;;25.90;66.00;;;;;;5049284;28;20183;-73
2022/08/16 19:12:42;;;;;;;2.47;2.38;;;25.80;66.40;;;;;;5050056;28;20175;-74
2022/08/16 19:15:12;;;;;;;2.35;2.20;;;25.70;66.60;;;;;;5037106;28;20565;-73
2022/08/16 19:17:38;;;;;;;3.00;2.80;;;25.70;66.60;;;;;;5042527;28;20183;-73
2022/08/16 19:20:05;;;;;;;2.40;2.38;;;25.70;67.20;;;;;;5042753;28;20190;-73
2022/08/16 19:22:32;;;;;;;2.83;2.63;;;25.50;67.00;;;;;;5044201;28;20192;-74
2022/08/16 19:24:59;;;;;;;2.47;2.38;;;25.50;67.40;;;;;;5044378;28;20312;-73
2022/08/16 19:27:25;;;;;;;2.60;2.45;;;25.50;67.40;;;;;;5045809;28;20738;-75
2022/08/16 19:29:51;;;;;;;2.40;2.30;;;25.40;67.50;;;;;;5044513;28;20852;-75
2022/08/16 19:32:23;;;;;;;2.10;2.00;;;25.40;67.30;;;;;;5049165;28;20211;-74
2022/08/16 19:34:49;;;;;;;2.28;2.20;;;25.40;67.80;;;;;;5049097;28;20341;-75
2022/08/16 19:37:15;;;;;;;2.47;2.38;;;25.40;67.40;;;;;;5048763;28;21107;-75
2022/08/16 19:39:41;;;;;;;2.65;2.08;;;25.40;67.50;;;;;;5044845;28;20188;-75
2022/08/16 19:42:16;;;;;;;1.98;1.88;;;25.50;67.70;;;;;;5044509;28;20270;-75
2022/08/16 19:44:44;;;;;;;2.10;2.05;;;25.40;67.30;;;;;;5046044;28;20186;-75
2022/08/16 19:47:11;;;;;;;2.28;2.28;;;25.50;67.70;;;;;;5046495;28;20223;-75
2022/08/16 19:49:37;;;;;;;2.40;2.30;;;25.50;67.90;;;;;;5049152;28;20242;-75
2022/08/16 19:52:20;;;;;;;2.28;2.10;;;25.40;67.70;;;;;;5052233;28;20185;-74
2022/08/16 19:54:48;;;;;;;2.45;2.35;;;25.40;68.10;;;;;;5048865;28;20757;-75
2022/08/16 19:57:15;;;;;;;2.60;2.40;;;25.40;68.30;;;;;;5047000;28;20211;-75
2022/08/16 19:59:41;;;;;;;2.63;2.53;;;25.40;68.10;;;;;;5049029;28;20187;-75
2022/08/16 20:02:22;;;;;;;2.58;2.47;;;25.30;68.60;;;;;;5045709;28;20587;-73
2022/08/16 20:04:50;;;;;;;2.35;2.35;;;25.30;68.30;;;;;;5048989;28;20215;-76
2022/08/16 20:07:16;;;;;;;2.38;2.22;;;25.30;68.20;;;;;;5052653;28;20229;-74
2022/08/16 20:09:42;;;;;;;3.80;2.25;;;25.30;68.40;;;;;;5053682;28;20665;-76
2022/08/16 20:12:11;;;;;;;2.67;2.58;;;25.40;67.90;;;;;;5048355;28;20183;-76
2022/08/16 20:14:39;;;;;;;2.50;2.40;;;25.40;67.70;;;;;;5048304;28;20266;-75
2022/08/16 20:17:06;;;;;;;2.50;2.40;;;25.40;68.00;;;;;;5050276;28;20914;-75
2022/08/16 20:19:32;;;;;;;1.90;1.90;;;25.50;67.70;;;;;;5050592;28;20187;-75
2022/08/16 20:22:01;;;;;;;2.17;1.80;;;25.40;67.90;;;;;;5051519;28;20183;-75
2022/08/16 20:24:27;;;;;;;2.35;2.28;;;25.50;68.40;;;;;;5054260;28;20765;-76
2022/08/16 20:26:53;;;;;;;2.15;2.05;;;25.40;67.70;;;;;;5049095;28;21887;-75
2022/08/16 20:29:19;;;;;;;2.67;2.50;;;25.50;68.10;;;;;;5052127;28;20184;-76
2022/08/16 20:31:45;;;;;;;2.17;2.10;;;25.50;68.00;;;;;;5052354;28;20207;-76
2022/08/16 20:34:11;;;;;;;1.77;1.67;;;25.50;68.10;;;;;;5052586;28;20217;-76
2022/08/16 20:36:37;;;;;;;2.22;2.13;;;25.30;68.90;;;;;;5050541;28;20210;-76
2022/08/16 20:39:03;;;;;;;1.88;1.70;;;25.30;68.70;;;;;;5038797;28;20262;-75
2022/08/16 20:41:30;;;;;;;3.58;2.35;;;25.40;67.90;;;;;;5049124;28;20192;-75
2022/08/16 20:43:56;;;;;;;2.17;2.17;;;25.40;68.10;;;;;;5043597;28;20214;-75
2022/08/16 20:46:23;;;;;;;2.92;2.08;;;25.50;67.90;;;;;;5052042;28;20190;-75
2022/08/16 20:48:48;;;;;;;2.35;2.20;;;25.50;68.20;;;;;;5048130;28;20191;-75
2022/08/16 20:51:15;;;;;;;2.70;2.30;;;25.50;67.80;;;;;;5052776;28;20184;-74
2022/08/16 20:53:42;;;;;;;2.25;2.15;;;25.40;68.30;;;;;;5043522;28;20185;-76
2022/08/16 20:56:09;;;;;;;2.22;1.95;;;25.40;68.40;;;;;;5046653;28;20293;-76
2022/08/16 20:58:35;;;;;;;2.80;2.60;;;25.30;68.90;;;;;;5044155;28;20194;-76
2022/08/16 21:01:01;;;;;;;2.10;2.10;;;25.30;68.50;;;;;;5052542;28;20270;-76
2022/08/16 21:03:27;;;;;;;2.75;2.38;;;25.30;68.30;;;;;;5058244;28;20206;-75
2022/08/16 21:05:56;;;;;;;2.80;2.17;;;25.30;68.20;;;;;;5052942;28;20639;-75
2022/08/16 21:08:22;;;;;;;2.33;2.17;;;25.30;68.20;;;;;;5053421;28;20180;-76
2022/08/16 21:10:50;;;;;;;1.65;1.65;;;25.30;68.10;;;;;;5051566;28;20195;-75
2022/08/16 21:13:19;;;;;;;1.77;1.67;;;25.30;67.90;;;;;;5049892;28;20193;-75
2022/08/16 21:15:45;;;;;;;2.63;1.85;;;25.30;68.20;;;;;;5032678;28;20228;-75
2022/08/16 21:18:11;;;;;;;2.10;2.00;;;25.30;68.30;;;;;;5053583;28;20190;-75
2022/08/16 21:20:38;;;;;;;2.67;2.35;;;25.20;68.60;;;;;;5044286;28;20207;-75
2022/08/16 21:23:07;;;;;;;2.05;1.95;;;25.20;69.00;;;;;;5050930;28;20258;-75
2022/08/16 21:25:36;;;;;;;1.80;1.80;;;25.10;69.50;;;;;;5044646;28;20191;-75
2022/08/16 21:28:02;;;;;;;2.67;2.50;;;25.10;68.90;;;;;;5078163;28;20266;-74
2022/08/16 21:30:30;;;;;;;2.20;2.10;;;25.00;68.90;;;;;;5048873;28;20176;-75
2022/08/16 21:33:08;;;;;;;2.75;2.65;;;25.00;68.60;;;;;;5053555;28;20612;-75
2022/08/16 21:35:35;;;;;;;2.35;2.10;;;25.00;68.50;;;;;;5047595;28;20211;-76
2022/08/16 21:38:02;;;;;;;2.80;2.60;;;24.90;69.10;;;;;;5049404;28;20486;-75
2022/08/16 21:40:30;;;;;;;3.63;2.33;;;24.90;67.40;;;;;;5050300;28;20300;-76
2022/08/16 21:43:07;;;;;;;2.25;2.22;;;24.80;68.60;;;;;;5054957;28;20193;-75
2022/08/16 21:45:33;;;;;;;2.35;2.25;;;24.70;68.20;;;;;;5049557;28;20186;-75
2022/08/16 21:48:00;;;;;;;2.33;2.22;;;24.60;69.40;;;;;;5050775;28;20623;-75
2022/08/16 21:50:26;;;;;;;4.22;2.60;;;24.60;69.30;;;;;;5050787;28;20188;-75
2022/08/16 21:53:22;;;;;;;3.38;2.00;;;24.50;69.50;;;;;;5058347;28;20198;-75
2022/08/16 21:55:53;;;;;;;6.13;2.50;;;24.50;70.60;;;;;;5012994;28;20245;-75
2022/08/16 21:58:19;;;;;;;2.20;2.10;;;24.40;69.60;;;;;;5008284;28;20702;-75
2022/08/16 22:00:46;;;;;;;2.92;2.58;;;24.40;70.30;;;;;;5009431;28;20197;-75
2022/08/16 22:03:13;;;;;;;2.10;2.08;;;24.30;70.20;;;;;;5011593;28;20196;-75
2022/08/16 22:05:42;;;;;;;2.40;2.30;;;24.30;70.40;;;;;;5002203;28;20207;-75
2022/08/16 22:08:09;;;;;;;2.50;2.40;;;24.20;70.20;;;;;;5010069;28;20658;-75
2022/08/16 22:10:36;;;;;;;3.60;2.42;;;24.10;71.00;;;;;;5010828;28;20212;-75
2022/08/16 22:13:03;;;;;;;2.92;2.33;;;24.10;70.70;;;;;;5009256;28;20196;-75
2022/08/16 22:15:29;;;;;;;4.32;2.30;;;24.00;70.70;;;;;;5004846;28;20185;-75
2022/08/16 22:17:58;;;;;;;2.50;2.40;;;23.90;70.40;;;;;;5007107;28;20204;-75
2022/08/16 22:20:27;;;;;;;3.97;2.67;;;23.90;70.40;;;;;;5011804;28;20212;-75
2022/08/16 22:23:08;;;;;;;2.85;2.58;;;23.80;70.40;;;;;;5010300;28;20195;-75
2022/08/16 22:25:34;;;;;;;2.28;2.20;;;23.80;70.40;;;;;;5010585;28;20208;-75
2022/08/16 22:28:00;;;;;;;2.85;2.75;;;23.70;70.70;;;;;;5009718;28;20576;-76
2022/08/16 22:30:25;;;;;;;2.72;2.63;;;23.60;70.60;;;;;;4995009;28;20861;-75
2022/08/16 22:32:51;;;;;;;3.75;2.50;;;23.60;71.80;;;;;;5035483;28;20291;-75
2022/08/16 22:35:18;;;;;;;2.47;2.38;;;23.60;72.10;;;;;;5050696;28;20195;-76
2022/08/16 22:37:44;;;;;;;2.92;2.80;;;23.50;72.50;;;;;;5049923;28;20191;-75
2022/08/16 22:40:10;;;;;;;2.25;2.15;;;23.50;72.50;;;;;;5048318;28;20194;-75
2022/08/16 22:42:51;;;;;;;2.92;2.55;;;23.50;72.80;;;;;;5047765;28;20286;-75
2022/08/16 22:45:19;;;;;;;3.60;2.63;;;23.40;71.50;;;;;;5048978;28;20195;-75
2022/08/16 22:47:45;;;;;;;2.25;2.15;;;23.30;72.20;;;;;;5046553;28;20214;-75
2022/08/16 22:50:11;;;;;;;2.70;2.50;;;23.30;71.90;;;;;;5051779;28;20187;-75
2022/08/16 22:52:44;;;;;;;2.83;2.60;;;23.20;72.00;;;;;;5052946;28;20183;-75
2022/08/16 22:55:10;;;;;;;2.58;2.33;;;23.20;72.00;;;;;;5044339;28;20596;-75
2022/08/16 22:57:35;;;;;;;3.72;2.58;;;23.10;72.30;;;;;;5046285;28;20219;-75
2022/08/16 23:00:03;;;;;;;2.65;2.53;;;23.10;72.00;;;;;;5043826;28;20173;-74
2022/08/16 23:02:29;;;;;;;2.30;2.20;;;23.00;73.10;;;;;;5050264;28;20192;-75
2022/08/16 23:04:55;;;;;;;2.72;2.63;;;23.00;72.10;;;;;;5048063;28;20321;-75
2022/08/16 23:07:20;;;;;;;2.78;2.58;;;23.00;72.80;;;;;;5044307;28;20184;-75
2022/08/16 23:09:46;;;;;;;2.67;2.47;;;22.90;73.00;;;;;;5045697;28;20293;-74
2022/08/16 23:12:13;;;;;;;2.58;2.58;;;22.90;73.40;;;;;;5047779;28;20242;-74
2022/08/16 23:14:39;;;;;;;2.67;2.58;;;22.90;74.40;;;;;;5051814;28;20281;-74
2022/08/16 23:17:06;;;;;;;2.42;2.42;;;22.90;74.30;;;;;;5049515;28;20350;-75
2022/08/16 23:19:31;;;;;;;2.92;2.72;;;22.80;74.80;;;;;;5045334;28;20226;-74
2022/08/16 23:21:57;;;;;;;3.38;2.50;;;22.80;74.90;;;;;;5045865;28;20227;-74
2022/08/16 23:24:23;;;;;;;3.45;2.67;;;22.80;75.00;;;;;;5046928;28;20180;-76
2022/08/16 23:26:49;;;;;;;3.08;2.72;;;22.80;75.10;;;;;;5054185;28;20191;-74
2022/08/16 23:29:22;;;;;;;2.85;2.58;;;22.70;75.10;;;;;;5048388;28;20855;-75
2022/08/16 23:31:48;;;;;;;2.83;2.63;;;22.70;74.70;;;;;;5047042;28;20187;-75
2022/08/16 23:34:13;;;;;;;2.42;2.33;;;22.70;74.90;;;;;;5048269;28;20187;-75
2022/08/16 23:36:39;;;;;;;2.85;2.63;;;22.60;75.00;;;;;;5048344;28;20691;-75
2022/08/16 23:39:05;;;;;;;2.92;2.45;;;22.60;75.00;;;;;;5047787;28;20187;-75
2022/08/16 23:41:33;;;;;;;2.30;2.08;;;22.60;75.20;;;;;;5049674;28;20179;-75
2022/08/16 23:44:00;;;;;;;2.60;2.47;;;22.60;75.20;;;;;;5043522;28;20229;-74
2022/08/16 23:46:26;;;;;;;2.42;2.40;;;22.60;75.10;;;;;;5052133;28;20261;-75
2022/08/16 23:48:51;;;;;;;2.58;2.47;;;22.60;75.20;;;;;;5051431;28;20236;-75
2022/08/16 23:51:18;;;;;;;2.22;2.13;;;22.50;74.90;;;;;;5048908;28;20665;-76
2022/08/16 23:53:44;;;;;;;2.83;2.72;;;22.50;74.80;;;;;;5050000;28;20183;-76
2022/08/16 23:56:16;;;;;;;2.58;2.47;;;22.50;74.80;;;;;;5049082;28;20215;-74
2022/08/16 23:58:45;;;;;;;2.42;2.33;;;22.40;74.10;;;;;;5046423;28;20183;-74
